createdAt,value
2022-11-29T00:02:26.244Z,55.30
2022-11-29T00:05:27.921Z,55.60
2022-11-29T00:08:29.332Z,55.30
2022-11-29T00:11:47.591Z,55.60
2022-11-29T00:14:49.029Z,55.30
2022-11-29T00:17:50.843Z,55.40
2022-11-29T00:20:52.132Z,55.30
2022-11-29T00:23:53.616Z,55.70
2022-11-29T00:26:54.958Z,55.40
2022-11-29T00:29:56.305Z,55.40
2022-11-29T00:32:58.188Z,55.50
2022-11-29T00:36:00.506Z,55.60
2022-11-29T00:39:02.574Z,55.20
2022-11-29T00:42:04.003Z,55.40
2022-11-29T00:45:05.701Z,55.60
2022-11-29T00:48:07.573Z,55.40
2022-11-29T00:51:09.042Z,55.30
2022-11-29T00:54:10.332Z,55.50
2022-11-29T00:57:11.619Z,55.20
2022-11-29T01:00:13.316Z,55.60
2022-11-29T01:03:15.883Z,55.20
2022-11-29T01:06:17.655Z,55.30
2022-11-29T01:09:19.123Z,55.00
2022-11-29T01:12:20.452Z,55.40
2022-11-29T01:15:21.810Z,55.30
2022-11-29T01:18:24.089Z,55.10
2022-11-29T01:21:25.615Z,55.20
2022-11-29T01:24:27.974Z,55.10
2022-11-29T01:27:29.513Z,55.20
2022-11-29T01:30:30.840Z,55.10
2022-11-29T01:33:32.894Z,55.60
2022-11-29T01:36:34.602Z,55.40
2022-11-29T01:39:35.853Z,55.30
2022-11-29T01:42:37.203Z,55.30
2022-11-29T01:45:38.837Z,55.40
2022-11-29T01:48:40.706Z,55.20
2022-11-29T01:51:44.858Z,55.10
2022-11-29T01:54:47.555Z,55.30
2022-11-29T01:57:49.021Z,54.90
2022-11-29T02:00:50.254Z,55.30
2022-11-29T02:03:52.604Z,55.00
2022-11-29T02:06:53.989Z,55.20
2022-11-29T02:09:55.293Z,55.40
2022-11-29T02:13:00.545Z,55.30
2022-11-29T02:16:04.139Z,55.10
2022-11-29T02:19:18.176Z,54.90
2022-11-29T02:22:22.923Z,54.80
2022-11-29T02:25:34.423Z,55.00
2022-11-29T02:28:44.576Z,54.80
2022-11-29T02:32:05.588Z,55.00
2022-11-29T02:35:17.347Z,54.80
2022-11-29T02:38:29.398Z,55.00
2022-11-29T02:41:38.793Z,55.30
2022-11-29T02:44:47.279Z,54.90
2022-11-29T02:47:54.743Z,54.70
2022-11-29T02:51:01.065Z,55.00
2022-11-29T02:54:07.444Z,54.70
2022-11-29T02:57:17.499Z,54.80
2022-11-29T03:00:20.317Z,54.90
2022-11-29T03:03:23.626Z,55.10
2022-11-29T03:06:30.400Z,55.10
2022-11-29T03:09:36.301Z,55.00
2022-11-29T03:12:39.352Z,54.80
2022-11-29T03:15:43.528Z,55.00
2022-11-29T03:18:50.281Z,54.80
2022-11-29T03:21:58.925Z,55.00
2022-11-29T03:25:02.703Z,54.90
2022-11-29T03:28:06.545Z,54.90
2022-11-29T03:31:13.156Z,54.70
2022-11-29T03:34:17.076Z,54.80
2022-11-29T03:37:21.344Z,54.50
2022-11-29T03:40:25.760Z,55.00
2022-11-29T03:43:30.074Z,54.90
2022-11-29T03:46:34.622Z,55.00
2022-11-29T03:49:39.511Z,54.90
2022-11-29T03:52:45.905Z,55.10
2022-11-29T03:55:49.794Z,54.90
2022-11-29T03:58:54.234Z,55.00
2022-11-29T04:02:03.319Z,55.00
2022-11-29T04:05:12.931Z,54.90
2022-11-29T04:08:26.900Z,55.00
2022-11-29T04:11:53.853Z,55.10
2022-11-29T04:15:15.856Z,54.70
2022-11-29T04:18:29.320Z,54.70
2022-11-29T04:21:33.166Z,55.00
2022-11-29T04:24:49.284Z,54.80
2022-11-29T04:28:04.101Z,54.80
2022-11-29T04:31:11.291Z,54.90
2022-11-29T04:34:20.408Z,54.60
2022-11-29T04:37:30.031Z,54.90
2022-11-29T04:40:36.178Z,54.80
2022-11-29T04:43:52.196Z,54.70
2022-11-29T04:46:59.910Z,54.60
2022-11-29T04:50:12.624Z,54.80
2022-11-29T04:53:25.158Z,54.80
2022-11-29T04:56:30.697Z,54.70
2022-11-29T04:59:37.958Z,54.90
2022-11-29T05:02:41.378Z,54.90
2022-11-29T05:05:46.322Z,54.80
2022-11-29T05:08:52.155Z,54.80
2022-11-29T05:11:58.243Z,55.00
2022-11-29T05:15:13.688Z,54.80
2022-11-29T05:18:18.068Z,54.70
2022-11-29T05:21:24.967Z,55.00
2022-11-29T05:24:30.735Z,54.70
2022-11-29T05:27:42.296Z,54.80
2022-11-29T05:30:53.251Z,54.80
2022-11-29T05:34:05.146Z,54.90
2022-11-29T05:37:13.084Z,55.20
2022-11-29T05:40:29.872Z,55.00
2022-11-29T05:43:42.562Z,54.60
2022-11-29T05:46:49.136Z,54.70
2022-11-29T05:49:55.231Z,54.70
2022-11-29T05:52:59.906Z,55.00
2022-11-29T05:56:05.207Z,55.40
2022-11-29T05:59:08.735Z,54.70
2022-11-29T06:02:18.875Z,54.90
2022-11-29T06:05:24.113Z,54.80
2022-11-29T06:08:31.663Z,54.70
2022-11-29T06:11:34.950Z,54.90
2022-11-29T06:14:45.894Z,55.00
2022-11-29T06:17:56.960Z,54.90
2022-11-29T06:21:01.864Z,54.70
2022-11-29T06:24:15.597Z,54.90
2022-11-29T06:27:24.190Z,54.60
2022-11-29T06:30:26.914Z,54.90
2022-11-29T06:33:33.314Z,54.80
2022-11-29T06:36:37.828Z,54.70
2022-11-29T06:39:39.311Z,55.10
2022-11-29T06:42:40.640Z,54.70
2022-11-29T06:45:47.104Z,55.00
2022-11-29T06:48:51.117Z,54.70
2022-11-29T06:51:57.682Z,54.80
2022-11-29T06:55:03.680Z,54.90
2022-11-29T06:58:09.983Z,55.00
2022-11-29T07:01:18.516Z,55.00
2022-11-29T07:04:28.326Z,55.10
2022-11-29T07:07:30.538Z,54.80
2022-11-29T07:10:33.580Z,54.70
2022-11-29T07:13:36.129Z,54.90
2022-11-29T07:16:43.203Z,54.80
2022-11-29T07:19:52.366Z,54.70
2022-11-29T07:23:02.481Z,53.90
2022-11-29T07:26:09.344Z,54.90
2022-11-29T07:29:22.667Z,54.60
2022-11-29T07:32:29.261Z,54.50
2022-11-29T07:35:37.716Z,54.50
2022-11-29T07:38:49.522Z,54.10
2022-11-29T07:41:57.297Z,54.50
2022-11-29T07:45:05.144Z,54.20
2022-11-29T07:48:07.518Z,54.50
2022-11-29T07:51:09.931Z,54.30
2022-11-29T07:54:14.337Z,54.40
2022-11-29T07:57:15.733Z,54.20
2022-11-29T08:00:17.827Z,54.20
2022-11-29T08:03:19.834Z,53.90
2022-11-29T08:06:24.797Z,54.50
2022-11-29T08:09:27.154Z,54.20
2022-11-29T08:12:30.197Z,54.40
2022-11-29T08:15:31.655Z,54.00
2022-11-29T08:18:33.008Z,53.80
2022-11-29T08:21:34.942Z,53.50
2022-11-29T08:24:36.682Z,53.90
2022-11-29T08:27:38.517Z,54.20
2022-11-29T08:30:39.984Z,53.70
2022-11-29T08:33:43.412Z,53.50
2022-11-29T08:36:45.474Z,54.20
2022-11-29T08:39:46.827Z,53.10
2022-11-29T08:42:48.761Z,54.10
2022-11-29T08:45:54.369Z,53.80
2022-11-29T08:48:56.123Z,53.80
2022-11-29T08:52:12.837Z,53.20
2022-11-29T08:55:14.353Z,53.70
2022-11-29T08:58:16.445Z,53.40
2022-11-29T09:01:19.215Z,53.30
2022-11-29T09:04:20.847Z,53.50
2022-11-29T09:07:23.138Z,52.60
2022-11-29T09:10:24.665Z,53.30
2022-11-29T09:13:26.228Z,53.80
2022-11-29T09:16:28.793Z,53.30
2022-11-29T09:19:30.226Z,53.80
2022-11-29T09:22:32.077Z,53.60
2022-11-29T09:25:33.506Z,53.40
2022-11-29T09:28:35.417Z,53.20
2022-11-29T09:31:37.428Z,53.60
2022-11-29T09:34:39.333Z,53.30
2022-11-29T09:37:42.189Z,53.70
2022-11-29T09:40:47.870Z,53.40
2022-11-29T09:43:54.867Z,53.60
2022-11-29T09:46:59.619Z,53.20
2022-11-29T09:50:08.819Z,53.40
2022-11-29T09:53:18.467Z,53.40
2022-11-29T09:56:24.949Z,53.50
2022-11-29T09:59:28.359Z,53.10
2022-11-29T10:02:32.996Z,53.60
2022-11-29T10:05:37.742Z,54.30
2022-11-29T10:08:41.413Z,53.80
2022-11-29T10:11:47.012Z,53.40
2022-11-29T10:14:49.836Z,53.20
2022-11-29T10:17:53.384Z,53.50
2022-11-29T10:20:57.860Z,53.50
2022-11-29T10:24:02.407Z,53.30
2022-11-29T10:27:08.458Z,52.90
2022-11-29T10:30:13.244Z,53.60
2022-11-29T10:33:16.828Z,53.50
2022-11-29T10:36:21.694Z,53.30
2022-11-29T10:39:29.441Z,53.60
2022-11-29T10:42:46.055Z,53.50
2022-11-29T10:45:50.625Z,53.50
2022-11-29T10:48:52.442Z,53.90
2022-11-29T10:51:53.933Z,53.20
2022-11-29T10:54:57.338Z,53.60
2022-11-29T10:58:11.244Z,53.00
2022-11-29T11:01:13.319Z,53.10
2022-11-29T11:04:16.807Z,53.40
2022-11-29T11:07:22.206Z,53.10
2022-11-29T11:10:27.546Z,52.50
2022-11-29T11:13:30.501Z,53.40
2022-11-29T11:16:37.139Z,53.50
2022-11-29T11:19:39.168Z,53.90
2022-11-29T11:22:40.858Z,54.20
2022-11-29T11:25:42.741Z,54.00
2022-11-29T11:28:48.729Z,53.00
2022-11-29T11:31:51.955Z,53.00
2022-11-29T11:34:55.105Z,53.10
2022-11-29T11:37:56.735Z,53.10
2022-11-29T11:41:15.059Z,53.30
2022-11-29T11:44:45.917Z,53.30
2022-11-29T11:47:43.683Z,53.20
2022-11-29T11:50:49.346Z,53.10
2022-11-29T11:53:52.647Z,53.40
2022-11-29T11:56:54.709Z,53.10
2022-11-29T12:00:00.728Z,53.30
2022-11-29T12:03:24.173Z,53.10
2022-11-29T12:06:31.602Z,53.10
2022-11-29T12:09:35.337Z,53.10
2022-11-29T12:12:40.347Z,53.00
2022-11-29T12:15:44.236Z,53.10
2022-11-29T12:18:48.085Z,53.50
2022-11-29T12:21:52.317Z,53.30
2022-11-29T12:24:57.100Z,53.00
2022-11-29T12:27:59.699Z,53.20
2022-11-29T12:31:05.847Z,53.30
2022-11-29T12:34:22.424Z,53.40
2022-11-29T12:37:26.609Z,53.40
2022-11-29T12:40:31.909Z,53.50
2022-11-29T12:43:44.301Z,53.60
2022-11-29T12:46:48.766Z,53.20
2022-11-29T12:49:53.595Z,53.00
2022-11-29T12:53:02.134Z,53.10
2022-11-29T12:56:10.712Z,52.80
2022-11-29T12:59:19.570Z,53.30
2022-11-29T13:02:25.548Z,53.60
2022-11-29T13:05:34.692Z,53.80
2022-11-29T13:08:44.706Z,53.70
2022-11-29T13:11:49.485Z,53.40
2022-11-29T13:14:55.878Z,53.50
2022-11-29T13:18:00.310Z,52.80
2022-11-29T13:21:05.767Z,53.20
2022-11-29T13:24:10.587Z,53.40
2022-11-29T13:27:21.947Z,53.20
2022-11-29T13:30:25.942Z,51.50
2022-11-29T13:33:31.211Z,53.00
2022-11-29T13:36:38.103Z,53.00
2022-11-29T13:39:45.684Z,53.30
2022-11-29T13:42:50.253Z,53.30
2022-11-29T13:45:55.769Z,53.20
2022-11-29T13:48:57.161Z,53.30
2022-11-29T13:52:03.657Z,53.10
2022-11-29T13:55:14.709Z,53.00
2022-11-29T13:58:31.705Z,52.90
2022-11-29T14:01:43.344Z,53.10
2022-11-29T14:04:46.010Z,53.00
2022-11-29T14:08:02.541Z,53.00
2022-11-29T14:11:06.022Z,52.70
2022-11-29T14:14:09.140Z,53.00
2022-11-29T14:17:25.305Z,51.80
2022-11-29T14:20:43.314Z,53.10
2022-11-29T14:23:45.962Z,53.20
2022-11-29T14:26:47.350Z,53.10
2022-11-29T14:29:54.093Z,53.20
2022-11-29T14:32:57.634Z,53.00
2022-11-29T14:36:03.947Z,53.10
2022-11-29T14:39:14.421Z,53.10
2022-11-29T14:42:17.786Z,53.60
2022-11-29T14:45:22.684Z,52.60
2022-11-29T14:48:25.247Z,53.10
2022-11-29T14:51:28.021Z,53.00
2022-11-29T14:54:30.130Z,52.50
2022-11-29T14:57:41.379Z,52.20
2022-11-29T15:00:59.076Z,53.20
2022-11-29T15:04:02.058Z,53.00
2022-11-29T15:07:04.095Z,53.10
2022-11-29T15:10:12.992Z,53.10
2022-11-29T15:13:17.364Z,53.30
2022-11-29T15:16:23.794Z,53.30
2022-11-29T15:19:41.992Z,53.10
2022-11-29T15:22:47.457Z,53.20
2022-11-29T15:25:50.478Z,53.20
2022-11-29T15:28:52.455Z,52.80
2022-11-29T15:31:56.116Z,54.10
2022-11-29T15:34:58.027Z,50.20
2022-11-29T15:37:59.386Z,53.00
2022-11-29T15:41:01.560Z,52.40
2022-11-29T15:44:04.884Z,52.80
2022-11-29T15:47:15.351Z,52.70
2022-11-29T15:50:24.771Z,53.20
2022-11-29T15:53:29.463Z,53.10
2022-11-29T15:56:36.533Z,52.90
2022-11-29T15:59:40.440Z,53.00
2022-11-29T16:02:47.064Z,52.70
2022-11-29T16:05:50.047Z,52.90
2022-11-29T16:08:51.713Z,52.20
2022-11-29T16:11:53.750Z,53.10
2022-11-29T16:14:56.087Z,52.70
2022-11-29T16:18:01.748Z,53.00
2022-11-29T16:21:04.154Z,52.60
2022-11-29T16:24:13.659Z,52.80
2022-11-29T16:27:15.655Z,53.00
2022-11-29T16:30:20.792Z,52.60
2022-11-29T16:33:23.700Z,53.10
2022-11-29T16:36:26.243Z,53.40
2022-11-29T16:39:28.465Z,52.60
2022-11-29T16:42:31.572Z,52.70
2022-11-29T16:45:34.161Z,52.60
2022-11-29T16:48:37.474Z,52.90
2022-11-29T16:51:44.963Z,53.10
2022-11-29T16:54:46.568Z,52.70
2022-11-29T16:57:49.003Z,53.10
2022-11-29T17:00:50.560Z,52.40
2022-11-29T17:03:52.109Z,52.80
2022-11-29T17:06:53.626Z,52.60
2022-11-29T17:09:55.401Z,53.30
2022-11-29T17:12:57.401Z,52.60
2022-11-29T17:15:58.814Z,53.00
2022-11-29T17:19:00.188Z,52.80
2022-11-29T17:22:01.717Z,53.00
2022-11-29T17:25:03.209Z,52.80
2022-11-29T17:28:05.157Z,52.90
2022-11-29T17:31:08.660Z,52.70
2022-11-29T17:34:10.127Z,52.90
2022-11-29T17:37:11.383Z,52.80
2022-11-29T17:40:14.400Z,53.00
2022-11-29T17:43:16.312Z,52.70
2022-11-29T17:46:18.810Z,52.80
2022-11-29T17:49:20.225Z,52.80
2022-11-29T17:52:21.539Z,53.20
2022-11-29T17:55:25.770Z,52.70
2022-11-29T17:58:32.217Z,53.30
2022-11-29T18:01:35.012Z,53.00
2022-11-29T18:04:36.636Z,53.00
2022-11-29T18:07:56.969Z,52.90
2022-11-29T18:11:02.226Z,53.30
2022-11-29T18:14:04.538Z,52.90
2022-11-29T18:17:06.274Z,52.90
2022-11-29T18:20:08.548Z,53.00
2022-11-29T18:23:09.803Z,52.90
2022-11-29T18:26:12.478Z,53.20
2022-11-29T18:29:14.525Z,53.40
2022-11-29T18:32:15.829Z,53.00
2022-11-29T18:35:17.127Z,53.20
2022-11-29T18:38:18.376Z,53.00
2022-11-29T18:41:21.233Z,53.40
2022-11-29T18:44:28.423Z,53.20
2022-11-29T18:47:32.100Z,53.10
2022-11-29T18:50:33.452Z,53.00
2022-11-29T18:53:35.096Z,53.20
2022-11-29T18:56:36.474Z,53.20
2022-11-29T18:59:38.368Z,53.50
2022-11-29T19:02:39.673Z,53.20
2022-11-29T19:05:48.874Z,53.30
2022-11-29T19:08:51.182Z,53.00
2022-11-29T19:11:52.453Z,53.50
2022-11-29T19:14:54.787Z,53.30
2022-11-29T19:17:56.489Z,53.10
2022-11-29T19:21:02.953Z,53.20
2022-11-29T19:24:06.771Z,53.60
2022-11-29T19:27:08.124Z,53.40
2022-11-29T19:30:10.713Z,53.60
2022-11-29T19:33:12.681Z,53.20
2022-11-29T19:36:14.999Z,53.30
2022-11-29T19:39:16.525Z,53.60
2022-11-29T19:42:17.861Z,53.30
2022-11-29T19:45:21.112Z,53.20
2022-11-29T19:48:22.459Z,53.60
2022-11-29T19:51:24.188Z,53.60
2022-11-29T19:54:25.461Z,53.40
2022-11-29T19:57:27.520Z,53.40
2022-11-29T20:00:30.027Z,53.40
2022-11-29T20:03:31.554Z,53.60
2022-11-29T20:06:32.828Z,53.70
2022-11-29T20:09:34.117Z,53.70
2022-11-29T20:12:35.431Z,53.90
2022-11-29T20:15:37.364Z,53.10
2022-11-29T20:18:39.987Z,53.10
2022-11-29T20:21:42.636Z,53.20
2022-11-29T20:24:45.544Z,53.60
2022-11-29T20:27:47.074Z,53.60
2022-11-29T20:30:49.011Z,53.50
2022-11-29T20:33:51.628Z,53.50
2022-11-29T20:37:05.945Z,53.70
2022-11-29T20:40:09.233Z,53.20
2022-11-29T20:43:12.989Z,53.30
2022-11-29T20:46:15.570Z,53.10
2022-11-29T20:49:17.389Z,53.30
2022-11-29T20:52:26.496Z,53.60
2022-11-29T20:55:27.741Z,53.40
2022-11-29T20:58:29.875Z,53.50
2022-11-29T21:01:31.924Z,53.60
2022-11-29T21:04:33.192Z,53.50
2022-11-29T21:07:34.507Z,53.90
2022-11-29T21:10:35.938Z,53.60
2022-11-29T21:13:37.520Z,53.90
2022-11-29T21:16:39.644Z,53.70
2022-11-29T21:19:41.214Z,53.50
2022-11-29T21:22:46.481Z,53.80
2022-11-29T21:25:52.411Z,53.50
2022-11-29T21:28:59.372Z,53.60
2022-11-29T21:32:02.168Z,53.70
2022-11-29T21:35:03.631Z,53.70
2022-11-29T21:38:05.599Z,53.80
2022-11-29T21:41:06.946Z,53.50
2022-11-29T21:44:08.734Z,53.50
2022-11-29T21:47:11.003Z,53.70
2022-11-29T21:50:12.641Z,53.60
2022-11-29T21:53:14.242Z,53.60
2022-11-29T21:56:15.587Z,53.50
2022-11-29T21:59:17.168Z,53.70
2022-11-29T22:02:19.231Z,53.60
2022-11-29T22:05:20.778Z,53.50
2022-11-29T22:08:22.086Z,53.50
2022-11-29T22:11:30.196Z,53.70
2022-11-29T22:14:31.473Z,53.80
2022-11-29T22:17:33.466Z,53.40
2022-11-29T22:20:34.788Z,53.50
2022-11-29T22:23:36.141Z,53.60
2022-11-29T22:26:37.992Z,53.90
2022-11-29T22:29:39.362Z,53.20
2022-11-29T22:32:41.208Z,53.60
2022-11-29T22:35:42.690Z,53.70
2022-11-29T22:38:43.962Z,53.70
2022-11-29T22:41:50.676Z,53.30
2022-11-29T22:44:55.061Z,53.60
2022-11-29T22:47:57.366Z,53.30
2022-11-29T22:51:02.811Z,53.30
2022-11-29T22:54:04.901Z,53.40
2022-11-29T22:57:06.165Z,54.60
2022-11-29T23:00:08.852Z,53.40
2022-11-29T23:03:10.872Z,53.40
2022-11-29T23:06:13.229Z,53.40
2022-11-29T23:09:15.387Z,52.60
2022-11-29T23:12:16.722Z,53.40
2022-11-29T23:15:17.997Z,53.20
2022-11-29T23:18:19.969Z,53.40
2022-11-29T23:21:22.877Z,53.40
2022-11-29T23:24:24.513Z,53.30
2022-11-29T23:27:25.809Z,53.20
2022-11-29T23:30:27.244Z,53.40
2022-11-29T23:33:29.139Z,53.50
2022-11-29T23:36:30.946Z,53.30
2022-11-29T23:39:32.254Z,53.20
2022-11-29T23:42:33.521Z,53.40
2022-11-29T23:45:35.449Z,54.10
2022-11-29T23:48:37.447Z,53.30
2022-11-29T23:51:38.780Z,53.40
2022-11-29T23:54:40.028Z,53.30
2022-11-29T23:57:41.523Z,53.20
